Terminal Aerodrome Forecast
Issued by NWS

Home | Current Version | Previous Version | Text Only | Print | Product List | Glossary On
Versions: 1 2 3 4 5 6 7 8 9 10 11 12 13 14 15 16 17
000
FTUS43 KILX 230500
TAFCMI
TAF
KCMI 230520Z 2306/2406 22006KT P6SM SCT040 BKN250
     FM230800 24006KT P6SM VCTS BKN035CB
     FM231000 27004KT 5SM BR SCT025
      TEMPO 2310/2312 BKN025
     FM231200 32006KT P6SM SCT250
     FM231500 02012KT P6SM SCT060
     FM240200 03008KT P6SM SKC=

USA.gov is the U.S. government's official web portal to all federal, state and local government web resources and services.